Time;durP1;ratioP1;P1;durP2;ratioP2;P2;SDS_P1;SDS_P2;PMS_P1;PMS_P2;Temp;Humidity;BMP_temperature;BMP_pressure;BME280_temperature;BME280_humidity;BME280_pressure;Samples;Min_cycle;Max_cycle;Signal;HPM_P1;HPM_P2
2021/03/26 00:01:33;;;;;;;169.23;84.27;;;;;;;1.34;58.11;99534.28;114976;1200;103191;-73
2021/03/26 00:04:03;;;;;;;181.13;90.00;;;;;;;1.16;58.23;99536.48;114907;1200;103149;-73
2021/03/26 00:06:34;;;;;;;208.00;103.10;;;;;;;1.03;58.13;99535.95;114969;1199;103073;-75
2021/03/26 00:09:02;;;;;;;186.77;94.03;;;;;;;1.02;57.64;99542.09;115019;1200;103037;-75
2021/03/26 00:11:30;;;;;;;184.63;94.93;;;;;;;1.00;58.06;99540.42;115006;1200;103248;-76
2021/03/26 00:13:59;;;;;;;185.03;94.33;;;;;;;0.98;58.05;99536.98;114971;1200;103136;-74
2021/03/26 00:16:28;;;;;;;177.20;90.85;;;;;;;0.97;58.26;99537.88;114991;1200;103139;-74
2021/03/26 00:18:56;;;;;;;182.83;92.27;;;;;;;1.01;58.10;99537.75;114922;1199;103079;-75
2021/03/26 00:21:24;;;;;;;189.40;93.97;;;;;;;1.06;58.21;99534.16;114982;1199;103066;-76
2021/03/26 00:23:53;;;;;;;177.70;89.30;;;;;;;1.09;58.38;99532.30;114875;1200;103179;-74
2021/03/26 00:26:21;;;;;;;170.60;84.20;;;;;;;1.06;58.17;99536.77;114913;1200;103069;-74
2021/03/26 00:28:51;;;;;;;160.30;83.60;;;;;;;1.00;57.88;99541.27;114990;1199;103526;-75
2021/03/26 00:31:18;;;;;;;175.70;89.53;;;;;;;0.99;57.98;99541.32;114964;1200;103127;-74
2021/03/26 00:33:46;;;;;;;167.73;87.73;;;;;;;0.99;58.27;99538.70;114974;1200;103111;-75
2021/03/26 00:36:14;;;;;;;173.43;89.33;;;;;;;1.00;58.23;99524.70;114973;1200;103228;-74
2021/03/26 00:38:41;;;;;;;174.10;88.80;;;;;;;1.00;58.27;99529.94;114972;1199;103076;-75
2021/03/26 00:41:08;;;;;;;172.50;86.30;;;;;;;1.01;58.32;99529.89;115032;1199;103041;-75
2021/03/26 00:43:36;;;;;;;154.70;79.03;;;;;;;0.99;58.58;99533.46;115017;1200;103063;-75
2021/03/26 00:46:04;;;;;;;153.73;80.15;;;;;;;0.97;58.53;99532.64;115024;1200;103140;-75
2021/03/26 00:48:31;;;;;;;145.20;74.85;;;;;;;0.95;58.60;99531.81;115030;1200;103188;-75
2021/03/26 00:51:01;;;;;;;157.37;77.43;;;;;;;0.91;58.47;99532.80;115020;1199;103169;-75
2021/03/26 00:53:34;;;;;;;160.75;81.15;;;;;;;0.85;58.79;99528.55;115012;1200;103146;-75
2021/03/26 00:56:03;;;;;;;154.33;77.23;;;;;;;0.71;59.17;99529.78;115035;1200;103082;-74
2021/03/26 00:58:31;;;;;;;151.13;80.57;;;;;;;0.54;58.72;99524.96;115036;1199;103159;-75
2021/03/26 01:00:59;;;;;;;152.47;76.20;;;;;;;0.47;58.79;99514.66;114961;1200;104586;-74
2021/03/26 01:03:29;;;;;;;146.47;72.97;;;;;;;0.40;59.22;99521.80;115007;1199;103133;-75
2021/03/26 01:06:01;;;;;;;146.73;74.93;;;;;;;0.38;59.04;99514.00;114970;1199;103118;-74
2021/03/26 01:08:30;;;;;;;148.33;73.20;;;;;;;0.40;58.88;99506.98;114931;1200;103529;-77
2021/03/26 01:11:01;;;;;;;137.03;70.87;;;;;;;0.40;59.05;99506.98;114948;1199;103117;-74
2021/03/26 01:13:28;;;;;;;142.25;75.10;;;;;;;0.44;58.72;99512.98;115008;1200;103034;-73
2021/03/26 01:15:55;;;;;;;142.30;72.75;;;;;;;0.48;59.27;99514.63;114989;1200;103491;-74
2021/03/26 01:18:37;;;;;;;140.57;70.53;;;;;;;0.52;58.78;99512.79;115023;1200;103136;-73
2021/03/26 01:21:06;;;;;;;147.27;72.60;;;;;;;0.55;59.28;99512.72;114964;1200;103062;-74
2021/03/26 01:23:34;;;;;;;135.73;68.87;;;;;;;0.53;59.15;99507.53;114999;1199;103040;-74
2021/03/26 01:26:03;;;;;;;146.47;73.60;;;;;;;0.53;59.16;99509.27;115008;1200;103316;-75
2021/03/26 01:28:31;;;;;;;142.15;70.30;;;;;;;0.52;59.21;99518.02;114969;1200;103043;-74
2021/03/26 01:31:00;;;;;;;136.25;71.35;;;;;;;0.48;59.48;99503.28;115010;1200;103059;-72
2021/03/26 01:33:29;;;;;;;126.95;57.65;;;;;;;0.49;59.86;99508.50;114974;1199;103060;-73
2021/03/26 01:35:57;;;;;;;129.30;63.55;;;;;;;0.42;59.66;99506.92;115035;1199;103059;-73
2021/03/26 01:38:27;;;;;;;123.90;60.05;;;;;;;0.35;59.70;99513.20;115026;1200;103280;-73
2021/03/26 01:41:01;;;;;;;144.93;68.53;;;;;;;0.32;59.11;99511.52;115009;1198;103178;-73
2021/03/26 01:43:32;;;;;;;141.77;65.07;;;;;;;0.38;59.21;99515.73;115050;1199;103136;-73
2021/03/26 01:46:00;;;;;;;134.67;66.33;;;;;;;0.42;59.35;99506.92;115032;1199;103095;-73
2021/03/26 01:48:39;;;;;;;142.35;70.20;;;;;;;0.46;59.44;99516.42;115074;1200;103066;-73
2021/03/26 01:51:16;;;;;;;117.50;56.10;;;;;;;0.43;60.06;99519.95;115033;1199;103229;-72
2021/03/26 01:53:44;;;;;;;127.70;62.83;;;;;;;0.35;60.03;99510.58;115018;1200;103082;-74
2021/03/26 01:56:13;;;;;;;137.43;67.37;;;;;;;0.31;59.45;99519.39;115038;1199;103070;-73
2021/03/26 01:58:41;;;;;;;128.00;63.75;;;;;;;0.32;59.70;99515.88;115008;1200;103155;-73
2021/03/26 02:01:15;;;;;;;128.35;62.95;;;;;;;0.32;59.80;99518.50;115078;1200;103287;-73
2021/03/26 02:03:46;;;;;;;119.57;56.23;;;;;;;0.29;59.74;99519.45;114995;1200;103044;-73
2021/03/26 02:06:37;;;;;;;125.00;61.00;;;;;;;0.23;60.01;99522.20;115029;1200;103082;-73
2021/03/26 02:09:13;;;;;;;138.03;66.33;;;;;;;0.17;59.72;99522.34;115032;1199;103525;-73
2021/03/26 02:11:57;;;;;;;125.25;62.05;;;;;;;0.19;59.79;99525.78;114981;1199;103162;-73
2021/03/26 02:14:52;;;;;;;135.57;69.57;;;;;;;0.23;60.11;99530.05;115020;1198;103163;-73
2021/03/26 02:17:24;;;;;;;114.15;55.40;;;;;;;0.19;60.35;99524.04;115030;1200;103297;-76
2021/03/26 02:20:04;;;;;;;120.13;60.60;;;;;;;0.12;60.11;99522.45;114981;1200;103063;-75
2021/03/26 02:22:33;;;;;;;106.17;52.13;;;;;;;0.10;60.95;99521.63;114930;1199;103027;-74
2021/03/26 02:25:02;;;;;;;119.83;60.73;;;;;;;0.11;60.53;99518.95;114998;1200;103535;-74
2021/03/26 02:27:37;;;;;;;125.93;61.57;;;;;;;0.13;59.97;99521.56;115033;1199;103150;-75
2021/03/26 02:30:12;;;;;;;112.55;56.70;;;;;;;0.12;59.94;99514.60;115015;1199;103123;-76
2021/03/26 02:32:41;;;;;;;122.10;62.60;;;;;;;0.13;60.50;99525.02;115020;1200;103032;-74
2021/03/26 02:35:16;;;;;;;115.77;55.60;;;;;;;0.12;60.27;99517.22;115031;1199;103078;-72
2021/03/26 02:37:52;;;;;;;114.80;55.73;;;;;;;0.14;60.77;99515.43;115001;1200;103526;-73
2021/03/26 02:40:34;;;;;;;119.30;61.05;;;;;;;0.16;60.26;99523.23;115006;1199;103554;-73
2021/03/26 02:43:11;;;;;;;124.50;62.20;;;;;;;0.18;60.28;99526.67;114995;1200;103079;-75
2021/03/26 02:45:53;;;;;;;108.37;57.50;;;;;;;0.13;60.45;99527.63;114951;1199;103037;-76
2021/03/26 02:48:31;;;;;;;117.33;56.60;;;;;;;0.13;60.37;99529.41;114993;1199;103095;-76
2021/03/26 02:51:19;;;;;;;123.67;59.97;;;;;;;0.16;60.82;99536.31;115023;1199;103164;-75
2021/03/26 02:54:09;;;;;;;124.97;60.87;;;;;;;0.20;60.78;99543.20;115009;1199;103140;-76
2021/03/26 02:56:42;;;;;;;100.03;47.43;;;;;;;0.22;60.91;99531.78;115016;1200;102444;-76
2021/03/26 02:59:22;;;;;;;116.77;57.13;;;;;;;0.20;60.35;99530.99;114964;1200;103059;-76
2021/03/26 03:01:55;;;;;;;119.37;59.50;;;;;;;0.24;60.57;99537.00;115027;1198;103179;-75
2021/03/26 03:04:42;;;;;;;117.13;56.53;;;;;;;0.27;60.47;99536.94;114988;1199;103072;-75
2021/03/26 03:07:22;;;;;;;118.60;60.43;;;;;;;0.33;60.98;99539.41;115033;1198;103057;-74
2021/03/26 03:10:01;;;;;;;116.97;58.87;;;;;;;0.37;60.73;99543.69;114970;1199;103203;-75
2021/03/26 03:12:36;;;;;;;112.55;56.80;;;;;;;0.41;60.77;99542.69;114938;1200;103031;-74
2021/03/26 03:15:13;;;;;;;115.93;56.00;;;;;;;0.44;61.19;99545.23;114998;1199;103065;-75
2021/03/26 03:17:59;;;;;;;118.50;57.50;;;;;;;0.46;60.68;99550.45;114988;1200;103153;-74
2021/03/26 03:20:58;;;;;;;118.00;58.10;;;;;;;0.48;60.65;99559.13;114964;1198;103060;-72
2021/03/26 03:23:40;;;;;;;118.60;56.93;;;;;;;0.48;60.67;99553.89;115034;1199;103062;-75
2021/03/26 03:26:27;;;;;;;108.27;53.80;;;;;;;0.47;60.65;99561.77;114978;1199;103133;-74
2021/03/26 03:29:06;;;;;;;105.65;51.80;;;;;;;0.44;60.80;99560.09;115027;1200;103066;-74
2021/03/26 03:31:48;;;;;;;109.60;53.10;;;;;;;0.40;60.98;99556.70;114989;1199;103178;-73
2021/03/26 03:34:35;;;;;;;109.45;54.95;;;;;;;0.42;61.16;99554.03;115052;1200;103165;-74
2021/03/26 03:37:29;;;;;;;106.15;54.50;;;;;;;0.40;61.23;99551.47;115046;1200;103051;-74
2021/03/26 03:40:28;;;;;;;95.85;46.18;;;;;;;0.37;61.00;99551.53;114994;1199;103185;-73
2021/03/26 03:43:09;;;;;;;105.80;52.40;;;;;;;0.38;61.53;99555.00;115012;1199;103033;-74
2021/03/26 03:45:45;;;;;;;108.40;53.60;;;;;;;0.37;61.54;99554.16;115019;1200;103064;-73
2021/03/26 03:48:12;;;;;;;105.10;52.67;;;;;;;0.37;61.32;99562.01;115015;1200;103037;-72
2021/03/26 03:50:51;;;;;;;106.57;53.37;;;;;;;0.32;61.55;99561.25;115028;1200;103027;-74
2021/03/26 03:53:28;;;;;;;108.43;50.57;;;;;;;0.28;61.68;99568.28;114991;1198;103035;-73
2021/03/26 03:56:26;;;;;;;116.67;58.43;;;;;;;0.22;61.58;99572.81;114959;1199;103185;-73
2021/03/26 03:59:02;;;;;;;109.50;52.60;;;;;;;0.20;61.48;99566.74;115015;1200;103031;-74
2021/03/26 04:01:44;;;;;;;103.57;53.63;;;;;;;0.20;61.21;99565.01;115044;1200;103063;-73
2021/03/26 04:04:39;;;;;;;107.50;52.25;;;;;;;0.20;61.48;99565.01;115036;1200;103060;-73
2021/03/26 04:07:22;;;;;;;104.05;53.33;;;;;;;0.22;61.25;99564.95;115020;1200;103175;-77
2021/03/26 04:09:55;;;;;;;106.93;51.97;;;;;;;0.25;62.07;99570.13;115052;1199;103072;-73
2021/03/26 04:12:31;;;;;;;109.47;53.03;;;;;;;0.28;61.38;99570.06;115043;1200;103136;-71
2021/03/26 04:15:20;;;;;;;109.03;53.30;;;;;;;0.30;61.70;99568.27;115045;1199;103092;-74
2021/03/26 04:18:10;;;;;;;116.90;60.00;;;;;;;0.31;61.46;99566.50;114983;1200;103162;-74
2021/03/26 04:21:08;;;;;;;112.33;57.57;;;;;;;0.30;61.26;99563.03;114991;1199;103114;-74
2021/03/26 04:23:43;;;;;;;98.20;49.97;;;;;;;0.32;61.89;99561.25;114973;1200;103031;-73
2021/03/26 04:26:24;;;;;;;114.40;55.20;;;;;;;0.32;61.44;99563.86;114971;1200;103146;-72
2021/03/26 04:29:06;;;;;;;109.53;53.57;;;;;;;0.31;62.13;99556.91;115049;1199;103049;-73
2021/03/26 04:31:41;;;;;;;112.63;57.83;;;;;;;0.32;61.93;99563.86;115012;1200;103213;-73
2021/03/26 04:34:10;;;;;;;109.90;53.40;;;;;;;0.36;62.09;99556.79;114979;1199;103040;-73
2021/03/26 04:36:48;;;;;;;101.80;53.03;;;;;;;0.35;61.73;99561.17;114984;1200;103086;-73
2021/03/26 04:39:23;;;;;;;106.15;53.45;;;;;;;0.27;62.41;99556.09;114952;1200;103111;-73
2021/03/26 04:42:01;;;;;;;108.90;54.20;;;;;;;0.21;62.18;99564.08;114964;1199;103082;-72
2021/03/26 04:44:36;;;;;;;113.77;57.53;;;;;;;0.14;63.02;99563.36;114959;1199;103136;-72
2021/03/26 04:47:29;;;;;;;117.80;56.60;;;;;;;0.11;61.96;99560.81;114989;1199;103137;-73
2021/03/26 04:50:17;;;;;;;121.23;58.37;;;;;;;0.12;62.45;99567.77;115044;1200;102864;-73
2021/03/26 04:52:51;;;;;;;115.03;59.53;;;;;;;0.17;62.33;99565.07;114983;1200;103150;-72
2021/03/26 04:55:26;;;;;;;120.87;59.80;;;;;;;0.22;62.41;99581.50;115038;1199;103156;-74
2021/03/26 04:57:58;;;;;;;105.20;53.30;;;;;;;0.26;62.34;99577.08;115007;1199;103287;-74
2021/03/26 05:00:27;;;;;;;110.10;54.00;;;;;;;0.28;62.66;99572.67;115012;1199;103034;-74
2021/03/26 05:03:06;;;;;;;116.65;61.50;;;;;;;0.28;62.94;99572.67;114986;1200;103070;-73
2021/03/26 05:05:41;;;;;;;114.60;58.20;;;;;;;0.28;62.56;99570.06;114924;1199;103501;-74
2021/03/26 05:08:09;;;;;;;;;;;;;;;0.27;62.71;99576.19;114989;1206;103163;-74
2021/03/26 05:10:39;;;;;;;110.77;55.30;;;;;;;0.27;62.46;99576.19;114899;1199;103056;-75
2021/03/26 05:13:14;;;;;;;113.70;55.53;;;;;;;0.26;63.02;99583.16;114947;1199;103031;-75
2021/03/26 05:15:57;;;;;;;116.53;59.00;;;;;;;0.24;62.90;99579.72;114933;1199;103041;-73
2021/03/26 05:18:34;;;;;;;120.27;61.23;;;;;;;0.24;63.13;99584.95;114961;1200;103057;-74
2021/03/26 05:21:17;;;;;;;110.07;52.87;;;;;;;0.29;63.22;99585.70;114993;1199;103082;-73
2021/03/26 05:23:53;;;;;;;104.67;52.40;;;;;;;0.31;63.76;99592.66;114965;1200;103133;-74
2021/03/26 05:26:20;;;;;;;100.53;53.93;;;;;;;0.34;63.15;99587.36;114913;1200;103035;-73
2021/03/26 05:28:48;;;;;;;107.87;53.63;;;;;;;0.37;63.33;99592.53;115213;1199;103235;-79
2021/03/26 05:31:46;;;;;;;107.90;53.35;;;;;;;0.40;63.16;99593.34;115679;1199;103083;-80
2021/03/26 05:34:26;;;;;;;107.60;56.13;;;;;;;0.47;63.36;99594.05;114934;1199;103508;-73
2021/03/26 05:37:06;;;;;;;109.40;54.60;;;;;;;0.50;63.56;99596.61;114884;1199;103185;-73
2021/03/26 05:39:36;;;;;;;102.30;51.53;;;;;;;0.54;63.46;99595.64;114892;1199;103149;-72
2021/03/26 05:42:06;;;;;;;102.13;53.73;;;;;;;0.58;63.32;99602.53;115013;1199;103073;-81
2021/03/26 05:44:37;;;;;;;107.50;54.37;;;;;;;0.63;63.30;99599.80;115008;1200;103038;-79
2021/03/26 05:47:55;;;;;;;104.35;53.95;;;;;;;0.69;63.22;99604.89;115012;1200;103067;-76
2021/03/26 05:50:46;;;;;;;99.97;50.50;;;;;;;0.75;63.60;99606.49;115106;1199;103047;-76
2021/03/26 05:53:32;;;;;;;90.73;47.67;;;;;;;0.82;63.54;99601.95;115651;1199;100895;-75
2021/03/26 05:56:34;;;;;;;98.50;51.00;;;;;;;0.93;63.49;99599.10;114989;1200;103496;-73
2021/03/26 05:59:32;;;;;;;94.15;48.45;;;;;;;1.03;63.27;99600.56;114892;1200;103600;-74
2021/03/26 06:02:36;;;;;;;98.17;48.97;;;;;;;1.10;63.59;99602.14;115020;1199;103060;-75
2021/03/26 06:05:24;;;;;;;105.57;51.70;;;;;;;1.16;63.49;99601.99;114972;1199;103197;-73
2021/03/26 06:08:29;;;;;;;99.40;52.63;;;;;;;1.26;63.68;99610.47;115124;1200;103137;-74
2021/03/26 06:10:58;;;;;;;;;;;;;;;1.37;63.99;99610.22;115031;1204;103043;-74
2021/03/26 06:13:51;;;;;;;98.37;49.63;;;;;;;1.48;63.82;99612.55;114974;1199;103155;-76
2021/03/26 06:16:35;;;;;;;98.10;50.33;;;;;;;1.58;63.81;99610.53;114903;1199;103047;-74
2021/03/26 06:19:44;;;;;;;109.85;56.10;;;;;;;1.63;63.63;99609.48;115051;1199;103194;-74
2021/03/26 06:22:33;;;;;;;99.45;53.15;;;;;;;1.74;63.63;99613.59;114703;1200;103501;-74
2021/03/26 06:25:21;;;;;;;89.57;47.80;;;;;;;1.90;63.95;99619.27;114755;1199;103079;-74
2021/03/26 06:28:22;;;;;;;102.07;51.30;;;;;;;2.03;63.92;99623.27;114894;1199;103085;-74
2021/03/26 06:31:27;;;;;;;100.70;53.07;;;;;;;2.18;63.73;99624.58;114941;1200;103136;-74
2021/03/26 06:33:57;;;;;;;101.15;53.80;;;;;;;2.35;63.83;99625.86;114896;1199;103592;-71
2021/03/26 06:36:49;;;;;;;89.77;48.30;;;;;;;2.45;63.86;99626.44;114802;1199;103060;-71
2021/03/26 06:39:52;;;;;;;99.10;51.07;;;;;;;2.52;63.58;99628.81;114896;1198;103066;-75
2021/03/26 06:42:38;;;;;;;87.53;48.67;;;;;;;2.63;63.30;99623.26;114828;1200;103498;-71
2021/03/26 06:45:18;;;;;;;100.13;55.00;;;;;;;2.68;63.69;99630.98;114988;1199;103143;-72
2021/03/26 06:48:09;;;;;;;102.23;55.47;;;;;;;2.76;63.79;99628.11;114995;1199;103060;-74
2021/03/26 06:50:50;;;;;;;94.23;52.03;;;;;;;2.84;63.27;99631.35;115014;1198;103030;-73
2021/03/26 06:53:59;;;;;;;92.30;51.60;;;;;;;2.94;64.10;99631.91;115042;1199;103031;-74
2021/03/26 06:56:48;;;;;;;93.77;50.47;;;;;;;3.06;64.21;99625.39;114962;1199;103085;-75
2021/03/26 06:59:54;;;;;;;88.47;47.23;;;;;;;3.15;63.67;99622.46;115065;1199;103245;-76
2021/03/26 07:02:22;;;;;;;87.27;46.93;;;;;;;3.30;64.19;99628.13;114986;1200;102095;-74
2021/03/26 07:05:07;;;;;;;91.43;47.67;;;;;;;3.44;64.02;99623.27;114985;1200;103072;-74
2021/03/26 07:07:59;;;;;;;89.60;46.87;;;;;;;3.58;64.08;99628.89;114983;1200;103073;-74
2021/03/26 07:10:31;;;;;;;81.73;43.20;;;;;;;3.69;64.25;99628.50;114929;1199;103098;-76
2021/03/26 07:13:22;;;;;;;89.80;48.50;;;;;;;3.85;64.08;99627.97;114976;1200;103150;-75
2021/03/26 07:16:10;;;;;;;82.10;43.60;;;;;;;4.04;63.79;99630.79;114973;1199;103147;-72
2021/03/26 07:18:40;;;;;;;82.13;47.53;;;;;;;4.17;63.48;99621.53;114936;1199;103194;-72
2021/03/26 07:21:38;;;;;;;81.55;43.65;;;;;;;4.31;63.97;99634.17;115015;1199;103086;-73
2021/03/26 07:24:24;;;;;;;76.37;41.77;;;;;;;4.46;64.12;99631.88;114966;1200;103076;-72
2021/03/26 07:27:31;;;;;;;81.50;44.20;;;;;;;4.60;63.25;99642.72;115016;1199;103146;-72
2021/03/26 07:30:06;;;;;;;80.47;44.10;;;;;;;4.79;63.75;99635.87;114650;1202;103335;-74
2021/03/26 07:32:42;;;;;;;80.20;43.60;;;;;;;4.91;63.60;99641.50;114771;1200;103488;-76
2021/03/26 07:35:55;;;;;;;73.43;41.23;;;;;;;5.04;63.17;99639.25;114892;1199;103130;-76
2021/03/26 07:38:40;;;;;;;79.70;44.20;;;;;;;5.33;63.30;99647.73;114896;1200;103130;-75
2021/03/26 07:41:28;;;;;;;78.23;40.93;;;;;;;5.54;63.31;99644.25;114877;1200;103163;-76
2021/03/26 07:44:21;;;;;;;76.63;41.17;;;;;;;5.68;63.57;99647.16;114912;1200;103037;-74
2021/03/26 07:47:21;;;;;;;73.05;40.20;;;;;;;5.86;63.59;99645.50;114915;1199;103083;-75
2021/03/26 07:49:54;;;;;;;74.37;41.43;;;;;;;6.29;63.28;99649.81;114704;1199;103134;-75
2021/03/26 07:53:06;;;;;;;70.87;40.97;;;;;;;6.93;62.98;99643.26;114853;1200;103066;-76
2021/03/26 07:56:03;;;;;;;69.43;39.20;;;;;;;7.72;62.63;99635.86;114668;1202;103213;-75
2021/03/26 07:58:49;;;;;;;68.80;40.80;;;;;;;8.47;62.56;99640.72;114906;1199;103075;-77
2021/03/26 08:01:54;;;;;;;65.70;40.60;;;;;;;9.26;62.33;99638.13;114779;1199;103211;-75
2021/03/26 08:04:31;;;;;;;65.47;39.23;;;;;;;10.10;62.24;99636.69;114848;1200;102877;-76
2021/03/26 08:07:22;;;;;;;62.05;39.10;;;;;;;10.68;61.93;99644.63;114905;1198;103468;-71
2021/03/26 08:10:11;;;;;;;67.33;43.40;;;;;;;11.16;61.74;99650.38;114937;1200;103059;-75
2021/03/26 08:13:08;;;;;;;64.80;41.40;;;;;;;11.85;61.78;99638.69;114708;1199;103073;-75
2021/03/26 08:15:54;;;;;;;67.00;41.97;;;;;;;12.55;61.37;99638.33;114834;1199;103044;-75
2021/03/26 08:18:55;;;;;;;67.10;44.15;;;;;;;12.90;60.95;99634.91;115016;1200;103053;-75
2021/03/26 08:21:49;;;;;;;63.83;41.73;;;;;;;13.43;60.93;99633.73;114907;1199;103072;-74
2021/03/26 08:24:48;;;;;;;64.70;42.93;;;;;;;13.94;61.04;99641.40;114912;1199;103628;-75
2021/03/26 08:27:27;;;;;;;59.70;42.25;;;;;;;14.51;60.90;99637.89;114926;1200;103098;-75
2021/03/26 08:30:31;;;;;;;58.35;40.85;;;;;;;14.78;60.31;99636.66;114889;1200;103056;-77
2021/03/26 08:33:15;;;;;;;55.80;39.13;;;;;;;15.08;60.47;99638.66;114938;1199;103251;-77
2021/03/26 08:36:13;;;;;;;57.07;40.07;;;;;;;15.49;59.83;99636.16;114975;1199;103050;-77
2021/03/26 08:38:51;;;;;;;52.90;38.55;;;;;;;15.88;60.23;99638.30;115067;1199;103065;-75
2021/03/26 08:41:30;;;;;;;50.13;36.93;;;;;;;16.08;59.59;99639.26;114989;1200;103146;-76
2021/03/26 08:44:00;;;;;;;53.97;38.70;;;;;;;16.18;59.90;99633.93;114880;1199;103548;-75
2021/03/26 08:46:33;;;;;;;54.85;39.40;;;;;;;16.21;59.65;99637.22;115074;1200;103648;-74
2021/03/26 08:49:36;;;;;;;51.47;38.40;;;;;;;16.55;59.80;99640.59;114867;1198;103059;-75
2021/03/26 08:52:23;;;;;;;51.70;37.60;;;;;;;16.92;58.90;99640.81;114914;1199;103143;-75
2021/03/26 08:55:17;;;;;;;51.07;38.90;;;;;;;17.18;59.23;99640.33;114903;1199;103078;-74
2021/03/26 08:57:47;;;;;;;;;;;;;;;17.29;57.87;99643.88;114810;1206;103057;-73
2021/03/26 09:00:20;;;;;;;50.70;38.67;;;;;;;17.56;59.03;99644.00;114872;1199;103027;-73
2021/03/26 09:03:06;;;;;;;53.77;41.37;;;;;;;17.86;58.40;99639.42;114951;1200;103101;-73
2021/03/26 09:06:14;;;;;;;52.63;39.83;;;;;;;17.98;58.09;99642.78;114912;1199;103140;-75
2021/03/26 09:09:10;;;;;;;48.93;39.33;;;;;;;18.00;58.29;99643.52;114924;1198;103136;-73
2021/03/26 09:12:18;;;;;;;48.70;37.43;;;;;;;17.98;57.50;99644.64;114936;1200;103134;-75
2021/03/26 09:15:23;;;;;;;47.33;36.47;;;;;;;17.91;57.39;99646.21;114948;1199;103108;-75
2021/03/26 09:18:05;;;;;;;50.00;38.90;;;;;;;18.00;57.22;99645.38;114736;1200;103181;-76
2021/03/26 09:20:53;;;;;;;51.20;39.27;;;;;;;17.82;56.57;99642.56;115006;1199;103053;-74
2021/03/26 09:23:31;;;;;;;50.10;39.45;;;;;;;17.63;56.71;99643.44;114939;1199;103091;-75
2021/03/26 09:26:28;;;;;;;50.30;38.13;;;;;;;17.64;56.66;99650.52;114871;1199;103191;-73
2021/03/26 09:29:04;;;;;;;50.50;39.03;;;;;;;17.50;55.85;99641.05;114900;1199;103182;-74
2021/03/26 09:31:42;;;;;;;49.70;38.73;;;;;;;17.35;56.04;99644.15;114901;1199;104504;-76
2021/03/26 09:34:23;;;;;;;52.60;39.17;;;;;;;17.59;56.60;99639.33;114960;1199;103062;-75
2021/03/26 09:37:17;;;;;;;51.10;39.90;;;;;;;17.77;56.46;99642.97;114921;1200;103107;-73
2021/03/26 09:39:51;;;;;;;54.30;40.10;;;;;;;17.79;55.38;99643.67;114736;1199;103233;-74
2021/03/26 09:42:33;;;;;;;55.07;40.17;;;;;;;17.67;55.80;99648.38;114959;1199;103065;-75
2021/03/26 09:45:07;;;;;;;51.43;38.60;;;;;;;17.85;55.29;99640.41;114854;1200;103183;-74
2021/03/26 09:47:46;;;;;;;54.53;42.07;;;;;;;17.92;55.55;99643.39;114959;1199;103105;-74
2021/03/26 09:50:25;;;;;;;53.70;41.10;;;;;;;18.05;55.29;99647.63;114964;1199;103092;-74
2021/03/26 09:52:56;;;;;;;51.15;37.60;;;;;;;18.11;54.87;99638.97;114979;1199;103051;-76
2021/03/26 09:55:38;;;;;;;58.27;44.03;;;;;;;17.79;54.57;99632.08;114974;1199;103073;-75
2021/03/26 09:58:20;;;;;;;58.05;44.73;;;;;;;17.32;54.25;99635.53;114895;1199;103182;-74
2021/03/26 10:01:11;;;;;;;60.33;45.70;;;;;;;16.89;54.56;99641.11;114884;1199;103035;-73
2021/03/26 10:03:44;;;;;;;51.10;39.27;;;;;;;16.73;54.68;99643.47;114927;1199;103136;-74
2021/03/26 10:06:16;;;;;;;57.63;41.47;;;;;;;16.61;54.44;99642.73;114774;1200;103309;-75
2021/03/26 10:09:10;;;;;;;57.47;42.03;;;;;;;16.52;54.35;99637.19;114833;1199;103044;-75
2021/03/26 10:11:45;;;;;;;59.87;42.33;;;;;;;16.41;54.26;99631.08;114850;1199;103146;-76
2021/03/26 10:14:18;;;;;;;59.45;42.63;;;;;;;16.42;54.18;99630.92;114916;1200;103033;-75
2021/03/26 10:17:14;;;;;;;61.30;43.20;;;;;;;16.37;54.06;99630.48;114890;1200;103024;-74
2021/03/26 10:19:54;;;;;;;57.53;41.70;;;;;;;16.43;54.09;99618.37;114874;1200;103082;-74
2021/03/26 10:22:56;;;;;;;57.70;42.60;;;;;;;16.39;53.46;99630.36;114816;1199;103033;-73
2021/03/26 10:25:58;;;;;;;59.40;42.97;;;;;;;16.28;53.61;99617.89;114769;1200;103105;-74
2021/03/26 10:28:44;;;;;;;58.47;41.70;;;;;;;16.21;53.17;99621.11;114935;1198;103037;-74
2021/03/26 10:31:22;;;;;;;58.00;40.47;;;;;;;16.14;53.04;99619.08;114918;1199;103069;-74
2021/03/26 10:33:56;;;;;;;58.65;42.40;;;;;;;16.18;53.25;99615.14;114929;1200;103203;-75
2021/03/26 10:36:38;;;;;;;57.40;40.75;;;;;;;16.20;52.85;99616.73;114957;1199;103184;-74
2021/03/26 10:39:16;;;;;;;60.10;42.00;;;;;;;16.17;52.79;99610.77;114886;1199;103073;-74
2021/03/26 10:42:17;;;;;;;56.93;40.33;;;;;;;16.12;52.53;99613.86;114905;1199;103111;-75
2021/03/26 10:45:03;;;;;;;58.03;38.33;;;;;;;16.01;52.24;99614.80;114928;1199;103073;-74
2021/03/26 10:47:33;;;;;;;57.70;40.23;;;;;;;16.03;52.53;99610.16;114911;1198;103120;-75
2021/03/26 10:50:21;;;;;;;62.30;41.90;;;;;;;16.11;52.54;99612.16;115028;1199;103069;-75
2021/03/26 10:53:03;;;;;;;63.03;43.70;;;;;;;16.17;52.17;99608.08;114995;1199;103143;-68
2021/03/26 10:55:44;;;;;;;63.37;45.20;;;;;;;16.28;52.50;99609.84;114939;1200;103132;-67
2021/03/26 10:58:39;;;;;;;63.67;43.83;;;;;;;16.28;52.42;99594.57;114909;1200;103133;-66
2021/03/26 11:01:19;;;;;;;64.00;44.33;;;;;;;16.43;52.53;99602.26;114855;1199;103072;-67
2021/03/26 11:04:16;;;;;;;60.50;40.93;;;;;;;16.43;52.29;99594.20;114902;1199;103034;-67
2021/03/26 11:06:49;;;;;;;60.10;41.40;;;;;;;16.48;52.29;99594.65;114901;1199;103162;-75
2021/03/26 11:09:42;;;;;;;58.00;39.80;;;;;;;16.47;51.90;99587.58;114942;1200;103110;-76
2021/03/26 11:12:41;;;;;;;59.87;40.50;;;;;;;16.33;51.80;99589.65;114944;1199;103169;-75
2021/03/26 11:15:18;;;;;;;65.13;42.23;;;;;;;15.95;51.25;99584.95;114875;1199;103124;-75
2021/03/26 11:18:13;;;;;;;58.13;39.50;;;;;;;15.72;51.24;99588.61;114950;1199;103031;-75
2021/03/26 11:20:49;;;;;;;61.40;41.47;;;;;;;15.49;50.93;99595.95;114896;1199;103156;-76
2021/03/26 11:23:25;;;;;;;64.17;41.90;;;;;;;15.38;50.80;99587.98;114998;1199;103073;-74
2021/03/26 11:26:04;;;;;;;61.30;40.83;;;;;;;15.22;50.78;99586.59;114954;1199;103510;-75
2021/03/26 11:28:53;;;;;;;66.13;39.70;;;;;;;15.20;50.91;99591.22;114942;1199;103056;-75
2021/03/26 11:31:37;;;;;;;59.87;40.60;;;;;;;15.18;50.72;99590.50;114846;1199;103098;-77
2021/03/26 11:34:33;;;;;;;60.23;40.13;;;;;;;15.08;50.61;99584.23;114839;1199;103037;-75
2021/03/26 11:37:43;;;;;;;65.37;42.37;;;;;;;15.03;50.42;99580.11;114915;1199;103062;-74
2021/03/26 11:40:30;;;;;;;59.05;37.35;;;;;;;14.77;50.23;99573.36;114690;1202;103274;-77
2021/03/26 11:43:18;;;;;;;59.37;38.13;;;;;;;14.67;50.24;99578.59;114815;1200;103130;-75
2021/03/26 11:45:58;;;;;;;62.45;38.95;;;;;;;14.63;50.19;99578.02;114893;1200;103197;-76
2021/03/26 11:48:51;;;;;;;54.40;36.20;;;;;;;14.55;50.02;99575.94;114802;1200;103174;-75
2021/03/26 11:51:34;;;;;;;47.13;29.37;;;;;;;14.47;50.08;99573.02;114875;1199;103040;-77
2021/03/26 11:54:15;;;;;;;49.17;31.07;;;;;;;14.39;49.96;99565.63;114959;1200;103134;-74
2021/03/26 11:56:47;;;;;;;50.95;31.60;;;;;;;14.34;49.96;99562.47;114907;1200;103606;-77
2021/03/26 11:59:53;;;;;;;43.20;27.00;;;;;;;14.28;49.78;99568.31;114939;1200;103113;-75
2021/03/26 12:02:33;;;;;;;47.73;28.60;;;;;;;14.20;49.31;99563.58;114968;1200;103133;-75
2021/03/26 12:05:19;;;;;;;50.77;30.63;;;;;;;14.15;49.39;99565.77;114877;1198;103079;-75
2021/03/26 12:08:22;;;;;;;46.53;29.63;;;;;;;14.12;49.28;99561.53;114910;1200;103135;-77
2021/03/26 12:11:11;;;;;;;40.37;24.37;;;;;;;14.16;49.32;99550.59;114875;1199;103085;-77